createdAt,value
2022-12-06T00:03:02.640Z,1.48
2022-12-06T00:08:08.492Z,1.17
2022-12-06T00:13:12.322Z,1.10
2022-12-06T00:18:16.031Z,1.67
2022-12-06T00:23:21.484Z,1.58
2022-12-06T00:28:25.231Z,1.30
2022-12-06T00:33:29.575Z,1.58
2022-12-06T00:38:35.497Z,1.50
2022-12-06T00:43:40.068Z,1.52
2022-12-06T00:48:43.912Z,1.52
2022-12-06T00:53:49.786Z,1.25
2022-12-06T00:58:53.662Z,1.52
2022-12-06T01:03:59.276Z,1.90
2022-12-06T01:09:07.480Z,1.27
2022-12-06T01:14:11.079Z,1.48
2022-12-06T01:19:14.614Z,1.50
2022-12-06T01:24:20.432Z,2.00
2022-12-06T01:29:24.016Z,2.10
2022-12-06T01:34:27.584Z,1.92
2022-12-06T01:39:32.960Z,1.90
2022-12-06T01:44:46.035Z,1.80
2022-12-06T01:49:55.010Z,2.08
2022-12-06T01:55:01.303Z,1.90
2022-12-06T02:00:06.560Z,2.10
2022-12-06T02:05:10.598Z,2.10
2022-12-06T02:10:15.836Z,2.50
2022-12-06T02:15:20.946Z,2.33
2022-12-06T02:20:33.591Z,2.60
2022-12-06T02:26:15.176Z,2.78
2022-12-06T02:31:27.866Z,3.20
2022-12-06T02:36:38.698Z,3.03
2022-12-06T02:41:46.352Z,3.00
2022-12-06T02:46:56.324Z,2.55
2022-12-06T02:52:00.103Z,2.50
2022-12-06T02:57:03.716Z,2.80
2022-12-06T03:02:12.395Z,2.47
2022-12-06T03:07:31.269Z,2.90
2022-12-06T03:12:40.598Z,2.85
2022-12-06T03:17:51.571Z,2.90
2022-12-06T03:23:00.697Z,2.35
2022-12-06T03:28:06.432Z,2.60
2022-12-06T03:33:13.548Z,2.38
2022-12-06T03:38:24.212Z,2.60
2022-12-06T03:43:27.918Z,1.88
2022-12-06T03:48:36.650Z,2.10
2022-12-06T03:53:48.971Z,2.10
2022-12-06T03:58:52.651Z,2.60
2022-12-06T04:03:57.896Z,2.28
2022-12-06T04:09:01.487Z,2.93
2022-12-06T04:14:05.057Z,2.75
2022-12-06T04:19:10.288Z,3.30
2022-12-06T04:24:13.842Z,3.35
2022-12-06T04:29:17.391Z,2.90
2022-12-06T04:34:23.595Z,2.67
2022-12-06T04:44:30.377Z,2.40
2022-12-06T04:49:36.443Z,2.08
2022-12-06T04:54:40.240Z,2.30
2022-12-06T04:59:45.355Z,2.20
2022-12-06T05:04:50.587Z,2.47
2022-12-06T05:09:54.185Z,2.88
2022-12-06T05:14:57.724Z,1.95
2022-12-06T05:20:02.998Z,1.73
2022-12-06T05:25:06.965Z,1.27
2022-12-06T05:30:12.089Z,1.60
2022-12-06T05:35:17.443Z,1.70
2022-12-06T05:40:20.995Z,1.90
2022-12-06T05:45:24.621Z,2.00
2022-12-06T05:50:30.203Z,2.40
2022-12-06T05:55:33.861Z,2.10
2022-12-06T06:00:37.929Z,1.73
2022-12-06T06:05:48.942Z,2.03
2022-12-06T06:10:52.626Z,2.20
2022-12-06T06:15:56.220Z,2.20
2022-12-06T06:21:01.845Z,2.13
2022-12-06T06:26:08.950Z,2.53
2022-12-06T06:31:12.514Z,1.90
2022-12-06T06:36:17.790Z,2.15
2022-12-06T06:41:21.404Z,2.08
2022-12-06T06:46:25.028Z,2.20
2022-12-06T06:51:32.285Z,2.10
2022-12-06T06:56:35.942Z,2.53
2022-12-06T07:01:39.556Z,2.05
2022-12-06T07:06:45.155Z,2.42
2022-12-06T07:11:48.684Z,2.30
2022-12-06T07:16:52.297Z,2.30
2022-12-06T07:21:57.579Z,2.80
2022-12-06T07:27:01.145Z,2.78
2022-12-06T07:32:04.757Z,2.40
2022-12-06T07:37:09.945Z,2.60
2022-12-06T07:42:13.548Z,2.45
2022-12-06T07:47:17.511Z,2.20
2022-12-06T07:52:23.568Z,2.65
2022-12-06T07:57:27.177Z,2.17
2022-12-06T08:02:30.742Z,2.22
2022-12-06T08:07:35.989Z,2.50
2022-12-06T08:12:39.587Z,2.38
2022-12-06T08:17:43.542Z,2.50
2022-12-06T08:22:48.755Z,2.35
2022-12-06T08:27:52.335Z,1.90
2022-12-06T08:32:55.876Z,2.17
2022-12-06T08:38:01.099Z,2.25
2022-12-06T08:43:04.712Z,1.83
2022-12-06T08:48:08.332Z,2.10
2022-12-06T08:53:13.624Z,2.42
2022-12-06T08:58:17.138Z,1.70
2022-12-06T09:03:20.713Z,1.80
2022-12-06T09:08:26.006Z,1.85
2022-12-06T09:13:29.816Z,2.37
2022-12-06T09:18:33.352Z,1.92
2022-12-06T09:23:39.418Z,2.08
2022-12-06T09:28:44.161Z,1.92
2022-12-06T09:33:49.311Z,1.85
2022-12-06T09:38:58.757Z,1.52
2022-12-06T09:44:15.787Z,1.55
2022-12-06T09:49:31.676Z,1.70
2022-12-06T09:54:52.631Z,1.20
2022-12-06T10:00:09.854Z,1.92
2022-12-06T10:05:42.146Z,1.92
2022-12-06T10:10:57.626Z,1.80
2022-12-06T10:16:13.082Z,1.80
2022-12-06T10:21:23.844Z,2.00
2022-12-06T10:26:39.949Z,5.72
2022-12-06T10:31:55.893Z,5.88
2022-12-06T10:37:06.221Z,5.57
2022-12-06T10:42:19.223Z,5.50
2022-12-06T10:47:28.176Z,4.82
2022-12-06T10:52:39.481Z,4.25
2022-12-06T10:57:49.472Z,3.97
2022-12-06T11:03:02.003Z,5.15
2022-12-06T11:08:12.210Z,7.85
2022-12-06T11:13:22.163Z,6.32
2022-12-06T11:18:29.429Z,5.25
2022-12-06T11:23:41.068Z,5.60
2022-12-06T11:28:53.610Z,5.70
2022-12-06T11:33:58.911Z,5.07
2022-12-06T11:39:03.064Z,5.07
2022-12-06T11:44:14.272Z,5.30
2022-12-06T11:49:28.265Z,6.35
2022-12-06T11:54:39.107Z,4.82
2022-12-06T12:00:10.814Z,4.60
2022-12-06T12:05:21.518Z,4.50
2022-12-06T12:10:32.893Z,5.78
2022-12-06T12:15:38.796Z,5.53
2022-12-06T12:20:47.195Z,4.95
2022-12-06T12:26:01.195Z,3.67
2022-12-06T12:31:17.580Z,3.80
2022-12-06T12:36:26.478Z,2.90
2022-12-06T12:41:34.735Z,2.40
2022-12-06T12:46:44.404Z,2.60
2022-12-06T12:51:48.169Z,1.60
2022-12-06T12:56:52.649Z,1.75
2022-12-06T13:02:03.211Z,1.95
2022-12-06T13:07:13.131Z,2.35
2022-12-06T13:12:24.095Z,2.08
2022-12-06T13:17:32.735Z,1.50
2022-12-06T13:22:38.335Z,1.70
2022-12-06T13:27:46.288Z,1.50
2022-12-06T13:32:56.075Z,1.45
2022-12-06T13:38:01.560Z,3.00
2022-12-06T13:43:07.332Z,3.00
2022-12-06T13:48:48.430Z,3.70
2022-12-06T13:54:36.136Z,4.13
2022-12-06T13:59:42.566Z,3.88
2022-12-06T14:04:47.855Z,2.70
2022-12-06T14:09:51.576Z,3.75
2022-12-06T14:15:00.095Z,4.93
2022-12-06T14:20:20.171Z,3.47
2022-12-06T14:25:26.005Z,3.75
2022-12-06T14:30:29.752Z,3.58
2022-12-06T14:35:36.430Z,4.38
2022-12-06T14:40:47.175Z,3.65
2022-12-06T14:45:53.126Z,3.65
2022-12-06T14:51:03.633Z,3.53
2022-12-06T14:56:20.559Z,4.13
2022-12-06T15:01:26.432Z,3.92
2022-12-06T15:06:32.671Z,5.10
2022-12-06T15:16:40.312Z,6.28
2022-12-06T15:21:45.616Z,6.43
2022-12-06T15:26:49.257Z,7.43
2022-12-06T15:31:54.365Z,6.07
2022-12-06T15:37:38.040Z,6.68
2022-12-06T15:42:25.215Z,6.72
2022-12-06T15:47:28.880Z,7.18
2022-12-06T15:52:34.198Z,6.00
2022-12-06T15:57:37.824Z,6.28
2022-12-06T16:02:41.465Z,6.20
2022-12-06T16:07:46.830Z,5.60
2022-12-06T16:12:50.489Z,5.30
2022-12-06T16:17:54.333Z,6.57
2022-12-06T16:23:02.689Z,5.68
2022-12-06T16:28:06.444Z,5.93
2022-12-06T16:33:15.823Z,5.40
2022-12-06T16:38:21.546Z,6.30
2022-12-06T16:43:25.192Z,4.80
2022-12-06T16:48:28.871Z,5.10
2022-12-06T16:53:34.148Z,5.15
2022-12-06T16:58:37.828Z,4.15
2022-12-06T17:03:41.423Z,3.05
2022-12-06T17:08:46.859Z,3.50
2022-12-06T17:13:50.459Z,3.90
2022-12-06T17:18:54.072Z,3.33
2022-12-06T17:24:00.974Z,3.17
2022-12-06T17:29:04.917Z,3.25
2022-12-06T17:34:08.835Z,3.50
2022-12-06T17:39:16.722Z,3.30
2022-12-06T17:44:20.702Z,3.67
2022-12-06T17:49:26.244Z,3.40
2022-12-06T17:54:31.587Z,2.70
2022-12-06T17:59:35.272Z,2.83
2022-12-06T18:04:39.133Z,2.95
2022-12-06T18:09:44.748Z,3.03
2022-12-06T18:14:48.353Z,3.20
2022-12-06T18:19:51.982Z,2.80
2022-12-06T18:24:57.251Z,2.33
2022-12-06T18:30:01.102Z,2.77
2022-12-06T18:35:05.653Z,2.60
2022-12-06T18:40:11.515Z,2.88
2022-12-06T18:45:15.216Z,2.70
2022-12-06T18:50:19.079Z,2.60
2022-12-06T18:55:24.442Z,2.50
2022-12-06T19:00:28.314Z,2.03
2022-12-06T19:06:00.933Z,2.60
2022-12-06T19:11:02.003Z,3.28
2022-12-06T19:16:06.127Z,3.42
2022-12-06T19:21:09.734Z,3.22
2022-12-06T19:26:15.126Z,3.22
2022-12-06T19:31:19.649Z,3.00
2022-12-06T19:36:25.263Z,3.08
2022-12-06T19:41:31.176Z,3.00
2022-12-06T19:46:34.869Z,2.80
2022-12-06T19:51:39.655Z,2.70
2022-12-06T19:56:45.020Z,2.42
2022-12-06T20:01:49.475Z,2.27
2022-12-06T20:06:54.325Z,2.40
2022-12-06T20:12:01.389Z,2.38
2022-12-06T20:17:06.263Z,2.13
2022-12-06T20:22:09.946Z,2.25
2022-12-06T20:27:15.229Z,2.20
2022-12-06T20:32:18.846Z,2.07
2022-12-06T20:37:22.496Z,2.20
2022-12-06T20:42:27.894Z,2.22
2022-12-06T20:47:31.497Z,2.13
2022-12-06T20:52:35.116Z,2.00
2022-12-06T20:57:40.683Z,2.10
2022-12-06T21:02:44.358Z,1.90
2022-12-06T21:07:48.068Z,2.10
2022-12-06T21:12:53.356Z,2.17
2022-12-06T21:17:56.997Z,1.73
2022-12-06T21:23:00.633Z,1.90
2022-12-06T21:28:06.952Z,1.75
2022-12-06T21:33:10.530Z,1.50
2022-12-06T21:38:14.956Z,1.30
2022-12-06T21:43:21.155Z,1.70
2022-12-06T21:48:24.754Z,1.48
2022-12-06T21:53:28.393Z,1.70
2022-12-06T21:58:33.635Z,2.17
2022-12-06T22:03:37.365Z,1.83
2022-12-06T22:08:42.022Z,1.60
2022-12-06T22:13:47.706Z,1.55
2022-12-06T22:18:51.281Z,2.00
2022-12-06T22:23:55.863Z,1.80
2022-12-06T22:29:01.583Z,1.85
2022-12-06T22:34:05.406Z,1.52
2022-12-06T22:39:09.061Z,1.42
2022-12-06T22:44:14.327Z,1.38
2022-12-06T22:49:18.663Z,1.50
2022-12-06T22:54:22.330Z,5.40
2022-12-06T22:59:27.618Z,4.18
2022-12-06T23:04:31.268Z,2.30
2022-12-06T23:09:34.871Z,2.70
2022-12-06T23:14:40.186Z,1.70
2022-12-06T23:19:43.810Z,1.57
2022-12-06T23:24:49.560Z,1.38
2022-12-06T23:29:54.855Z,1.40
2022-12-06T23:34:58.491Z,2.07
2022-12-06T23:40:02.269Z,1.88
2022-12-06T23:45:08.854Z,2.38
2022-12-06T23:50:12.888Z,2.45
2022-12-06T23:55:16.624Z,3.55
